Time;durP1;ratioP1;P1;durP2;ratioP2;P2;SDS_P1;SDS_P2;PMS_P1;PMS_P2;Temp;Humidity;BMP_temperature;BMP_pressure;BME280_temperature;BME280_humidity;BME280_pressure;Samples;Min_cycle;Max_cycle;Signal;HPM_P1;HPM_P2
2023/09/27 00:01:37;;;;;;;19.60;16.27;;;15.60;99.90;;;;;;5073333;28;20177;-66
2023/09/27 00:04:04;;;;;;;18.57;16.67;;;15.50;99.90;;;;;;5072322;28;20072;-66
2023/09/27 00:06:29;;;;;;;20.97;16.37;;;15.50;99.90;;;;;;5073353;28;20044;-66
2023/09/27 00:08:55;;;;;;;19.77;17.67;;;15.50;99.90;;;;;;5073335;28;20049;-66
2023/09/27 00:11:21;;;;;;;17.77;15.70;;;15.40;99.90;;;;;;5072950;28;20123;-65
2023/09/27 00:13:46;;;;;;;19.13;16.17;;;15.50;99.90;;;;;;5073272;28;20063;-66
2023/09/27 00:16:12;;;;;;;19.17;16.23;;;15.50;99.90;;;;;;5073874;28;20052;-65
2023/09/27 00:18:38;;;;;;;23.43;16.43;;;15.40;99.90;;;;;;5073267;28;20084;-66
2023/09/27 00:21:03;;;;;;;16.50;14.90;;;15.40;99.90;;;;;;5073185;28;20431;-65
2023/09/27 00:23:29;;;;;;;19.80;17.20;;;15.40;99.90;;;;;;5073150;28;20059;-65
2023/09/27 00:25:55;;;;;;;18.23;16.40;;;15.40;99.90;;;;;;5073184;28;20048;-65
2023/09/27 00:28:20;;;;;;;20.03;16.53;;;15.40;99.90;;;;;;5073237;28;20044;-65
2023/09/27 00:30:49;;;;;;;20.37;16.93;;;15.40;99.90;;;;;;5073176;28;20044;-66
2023/09/27 00:33:15;;;;;;;19.87;17.80;;;15.30;99.90;;;;;;5075401;28;20098;-65
2023/09/27 00:35:41;;;;;;;22.10;16.63;;;15.40;99.90;;;;;;5077056;28;20040;-66
2023/09/27 00:38:06;;;;;;;19.37;17.17;;;15.30;99.90;;;;;;5076973;28;20049;-65
2023/09/27 00:40:32;;;;;;;17.60;15.87;;;15.30;99.90;;;;;;5077796;28;20048;-65
2023/09/27 00:42:58;;;;;;;19.77;17.70;;;15.30;99.90;;;;;;5076944;28;20032;-66
2023/09/27 00:45:23;;;;;;;19.10;16.70;;;15.30;99.90;;;;;;5075707;28;20052;-65
2023/09/27 00:47:51;;;;;;;21.23;17.60;;;15.30;99.90;;;;;;5076812;28;20077;-65
2023/09/27 00:50:17;;;;;;;19.90;16.40;;;15.30;99.90;;;;;;5076994;28;20055;-65
2023/09/27 00:52:45;;;;;;;20.00;17.90;;;15.20;99.90;;;;;;5076597;28;20123;-65
2023/09/27 00:55:13;;;;;;;19.60;17.57;;;15.20;99.90;;;;;;5076959;28;20101;-65
2023/09/27 00:57:40;;;;;;;21.97;18.63;;;15.20;99.90;;;;;;5076632;28;20047;-66
2023/09/27 01:00:10;;;;;;;19.93;17.80;;;15.20;99.90;;;;;;5075371;28;20066;-66
2023/09/27 01:02:35;;;;;;;21.67;16.10;;;15.20;99.90;;;;;;5076604;28;20078;-65
2023/09/27 01:05:02;;;;;;;20.13;18.03;;;15.20;99.90;;;;;;5077080;28;20052;-65
2023/09/27 01:07:29;;;;;;;18.10;16.20;;;15.20;99.90;;;;;;5076780;28;20053;-65
2023/09/27 01:09:54;;;;;;;20.63;18.63;;;15.20;99.90;;;;;;5076687;28;20051;-65
2023/09/27 01:12:20;;;;;;;19.03;17.03;;;15.20;99.90;;;;;;5076352;28;20041;-65
2023/09/27 01:14:46;;;;;;;18.77;16.73;;;15.20;99.90;;;;;;5076671;28;20086;-66
2023/09/27 01:17:12;;;;;;;19.30;17.30;;;15.20;99.90;;;;;;5076711;28;20052;-66
2023/09/27 01:19:38;;;;;;;22.10;18.10;;;15.20;99.90;;;;;;5076315;28;20049;-65
2023/09/27 01:22:04;;;;;;;21.43;18.63;;;15.20;99.90;;;;;;5076225;28;20047;-65
2023/09/27 01:24:34;;;;;;;18.27;16.37;;;15.20;99.90;;;;;;5075218;28;20467;-65
2023/09/27 01:27:01;;;;;;;20.57;18.50;;;15.20;99.90;;;;;;5076951;28;20450;-66
2023/09/27 01:29:27;;;;;;;20.77;18.57;;;15.20;99.90;;;;;;5076878;28;20067;-66
2023/09/27 01:31:53;;;;;;;19.77;17.53;;;15.10;99.90;;;;;;5075999;28;20045;-66
2023/09/27 01:34:18;;;;;;;21.43;19.37;;;15.10;99.90;;;;;;5075993;28;20501;-65
2023/09/27 01:36:44;;;;;;;20.30;18.13;;;15.10;99.90;;;;;;5076732;28;20044;-66
2023/09/27 01:39:09;;;;;;;20.60;18.47;;;15.10;99.90;;;;;;5076203;28;20049;-65
2023/09/27 01:41:35;;;;;;;20.60;18.50;;;15.10;99.90;;;;;;5075874;28;20045;-65
2023/09/27 01:44:01;;;;;;;19.27;17.37;;;15.10;99.90;;;;;;5075544;28;20048;-66
2023/09/27 01:46:26;;;;;;;20.43;18.40;;;15.00;99.90;;;;;;5075799;28;20479;-65
2023/09/27 01:48:52;;;;;;;19.50;17.20;;;15.00;99.90;;;;;;5075678;28;20045;-66
2023/09/27 01:51:18;;;;;;;19.60;17.63;;;15.00;99.90;;;;;;5075584;28;20082;-66
2023/09/27 01:53:44;;;;;;;19.57;17.57;;;15.00;99.90;;;;;;5076053;28;20045;-66
2023/09/27 01:56:10;;;;;;;20.67;18.43;;;15.00;99.90;;;;;;5075119;28;20522;-65
2023/09/27 01:58:35;;;;;;;19.30;16.60;;;14.90;99.90;;;;;;5075536;28;20041;-66
2023/09/27 02:01:01;;;;;;;21.27;18.27;;;14.90;99.90;;;;;;5075762;28;20044;-65
2023/09/27 02:03:27;;;;;;;20.47;18.33;;;14.90;99.90;;;;;;5075438;28;20048;-65
2023/09/27 02:05:53;;;;;;;21.60;19.50;;;14.90;99.90;;;;;;5075416;28;20048;-65
2023/09/27 02:08:18;;;;;;;19.37;17.37;;;14.80;99.90;;;;;;5075365;28;20053;-66
2023/09/27 02:10:44;;;;;;;19.67;17.70;;;14.80;99.90;;;;;;5075334;28;20090;-66
2023/09/27 02:13:11;;;;;;;19.53;17.53;;;14.80;99.90;;;;;;5074729;28;20064;-65
2023/09/27 02:15:36;;;;;;;20.20;17.63;;;14.80;99.90;;;;;;5075250;28;20098;-65
2023/09/27 02:18:02;;;;;;;18.90;16.93;;;14.70;99.90;;;;;;5075153;28;20052;-66
2023/09/27 02:20:28;;;;;;;20.63;18.60;;;14.70;99.90;;;;;;5075136;28;20048;-66
2023/09/27 02:22:54;;;;;;;20.70;18.50;;;14.70;99.90;;;;;;5075059;28;20048;-66
2023/09/27 02:25:20;;;;;;;20.33;18.30;;;14.70;99.90;;;;;;5075027;28;20040;-66
2023/09/27 02:27:46;;;;;;;19.33;17.33;;;14.70;99.90;;;;;;5074982;28;20086;-65
2023/09/27 02:30:12;;;;;;;19.80;17.80;;;14.60;99.90;;;;;;5074945;28;20117;-66
2023/09/27 02:32:42;;;;;;;19.90;17.77;;;14.60;99.90;;;;;;5074827;28;20420;-65
2023/09/27 02:35:09;;;;;;;20.50;16.40;;;14.60;99.90;;;;;;5074564;28;20048;-66
2023/09/27 02:37:36;;;;;;;19.67;17.60;;;14.50;99.90;;;;;;5073624;28;20097;-65
2023/09/27 02:40:11;;;;;;;18.13;16.23;;;14.50;99.90;;;;;;5074758;28;20036;-66
2023/09/27 02:42:38;;;;;;;19.47;17.40;;;14.50;99.90;;;;;;5075523;28;20052;-65
2023/09/27 02:45:04;;;;;;;19.17;17.13;;;14.60;99.90;;;;;;5074628;28;20045;-66
2023/09/27 02:47:30;;;;;;;20.03;17.17;;;14.50;99.90;;;;;;5074608;28;20048;-65
2023/09/27 02:49:56;;;;;;;20.90;18.03;;;14.50;99.90;;;;;;5074472;28;20486;-65
2023/09/27 02:52:22;;;;;;;19.97;17.97;;;14.50;99.90;;;;;;5056725;28;20041;-65
2023/09/27 02:54:47;;;;;;;19.83;17.83;;;14.50;99.90;;;;;;5074419;28;20389;-65
2023/09/27 02:57:13;;;;;;;18.30;16.60;;;14.40;99.90;;;;;;5074542;28;20059;-65
2023/09/27 02:59:39;;;;;;;19.33;17.47;;;14.40;99.90;;;;;;5056537;28;20048;-65
2023/09/27 03:02:04;;;;;;;19.63;17.63;;;14.40;99.90;;;;;;5074261;28;20041;-65
2023/09/27 03:04:30;;;;;;;20.17;18.07;;;14.40;99.90;;;;;;5074541;28;20127;-66
2023/09/27 03:06:56;;;;;;;19.43;17.50;;;14.40;99.90;;;;;;5074190;28;20040;-66
2023/09/27 03:09:23;;;;;;;20.30;17.57;;;14.40;99.90;;;;;;5074686;28;20136;-65
2023/09/27 03:11:49;;;;;;;21.37;18.27;;;14.40;99.90;;;;;;5074548;28;20044;-66
2023/09/27 03:14:14;;;;;;;19.50;17.50;;;14.40;99.90;;;;;;5074321;28;20079;-66
2023/09/27 03:16:40;;;;;;;19.40;17.50;;;14.40;99.90;;;;;;5074044;28;20469;-66
2023/09/27 03:19:06;;;;;;;20.27;18.17;;;14.40;99.90;;;;;;5073808;28;20087;-66
2023/09/27 03:21:32;;;;;;;21.90;18.97;;;14.30;99.90;;;;;;5073884;28;20048;-65
2023/09/27 03:23:57;;;;;;;18.93;17.07;;;14.30;99.90;;;;;;5072683;28;20048;-66
2023/09/27 03:26:23;;;;;;;20.70;18.60;;;14.30;99.90;;;;;;5073462;28;20076;-66
2023/09/27 03:28:50;;;;;;;19.53;17.53;;;14.20;99.90;;;;;;5074608;28;20040;-66
2023/09/27 03:31:17;;;;;;;18.73;16.90;;;14.20;99.90;;;;;;5072763;28;20507;-66
2023/09/27 03:33:42;;;;;;;18.57;16.60;;;14.20;99.90;;;;;;5073813;28;20186;-65
2023/09/27 03:36:08;;;;;;;21.83;18.83;;;14.20;99.90;;;;;;5073242;28;20123;-65
2023/09/27 03:38:34;;;;;;;18.73;16.83;;;14.20;99.90;;;;;;5073741;28;20040;-66
2023/09/27 03:41:00;;;;;;;20.30;18.13;;;14.10;99.90;;;;;;5073007;28;20044;-66
2023/09/27 03:43:25;;;;;;;19.80;17.70;;;14.10;99.90;;;;;;5073643;28;20049;-65
2023/09/27 03:45:52;;;;;;;21.20;18.90;;;14.10;99.90;;;;;;5072736;28;20052;-65
2023/09/27 03:48:19;;;;;;;19.17;17.23;;;14.10;99.90;;;;;;5074176;28;20096;-65
2023/09/27 03:50:45;;;;;;;18.97;16.97;;;14.10;99.90;;;;;;5073569;28;20048;-65
2023/09/27 03:53:11;;;;;;;18.70;16.80;;;14.10;99.90;;;;;;5073978;28;20040;-66
2023/09/27 03:55:37;;;;;;;19.23;17.23;;;14.10;99.90;;;;;;5073575;28;20049;-65
2023/09/27 03:58:03;;;;;;;20.17;18.17;;;14.10;99.90;;;;;;5073476;28;20056;-65
2023/09/27 04:00:29;;;;;;;20.13;18.00;;;14.10;99.90;;;;;;5074015;28;20056;-65
2023/09/27 04:02:55;;;;;;;23.93;18.70;;;14.10;99.90;;;;;;5073496;28;20079;-65
2023/09/27 04:05:26;;;;;;;20.70;18.60;;;14.10;99.90;;;;;;5073393;28;20091;-65
2023/09/27 04:07:52;;;;;;;20.70;18.50;;;14.10;99.90;;;;;;5072194;28;20476;-65
2023/09/27 04:10:19;;;;;;;19.97;18.10;;;14.00;99.90;;;;;;5073316;28;20105;-65
2023/09/27 04:12:45;;;;;;;21.87;18.70;;;14.00;99.90;;;;;;5073095;28;20037;-65
2023/09/27 04:15:12;;;;;;;23.30;20.73;;;14.00;99.90;;;;;;5072102;28;20060;-66
2023/09/27 04:17:38;;;;;;;23.03;20.33;;;14.00;99.90;;;;;;5072401;28;20076;-65
2023/09/27 04:20:14;;;;;;;22.03;19.13;;;14.00;99.90;;;;;;5072108;28;20486;-66
2023/09/27 04:22:42;;;;;;;20.60;18.50;;;14.00;99.90;;;;;;5073321;28;20080;-66
2023/09/27 04:25:08;;;;;;;21.23;19.17;;;14.00;99.90;;;;;;5073189;28;20041;-66
2023/09/27 04:27:34;;;;;;;20.33;18.33;;;14.00;99.90;;;;;;5073507;28;20399;-65
2023/09/27 04:30:00;;;;;;;19.90;17.97;;;14.00;99.90;;;;;;5073213;28;20056;-66
2023/09/27 04:32:26;;;;;;;19.50;17.47;;;14.00;99.90;;;;;;5073280;28;20102;-66
2023/09/27 04:34:51;;;;;;;20.63;18.63;;;13.90;99.90;;;;;;5073736;28;20376;-66
2023/09/27 04:37:17;;;;;;;20.57;18.40;;;13.90;99.90;;;;;;5073665;28;20078;-66
2023/09/27 04:39:43;;;;;;;20.67;18.47;;;13.90;99.90;;;;;;5073074;28;20131;-66
2023/09/27 04:42:08;;;;;;;19.43;17.43;;;13.80;99.90;;;;;;5073660;28;20119;-66
2023/09/27 04:44:34;;;;;;;20.60;18.50;;;13.80;99.90;;;;;;5073880;28;20048;-66
2023/09/27 04:47:00;;;;;;;20.37;18.17;;;13.80;99.90;;;;;;5073494;28;20044;-66
2023/09/27 04:49:25;;;;;;;20.57;18.57;;;13.80;99.90;;;;;;5073447;28;20476;-66
2023/09/27 04:51:51;;;;;;;21.90;19.70;;;13.80;99.90;;;;;;5072906;28;20080;-66
2023/09/27 04:54:17;;;;;;;22.57;20.40;;;13.80;99.90;;;;;;5072953;28;20048;-66
2023/09/27 04:56:42;;;;;;;22.87;20.57;;;13.80;99.90;;;;;;5072837;28;20057;-66
2023/09/27 04:59:08;;;;;;;23.43;21.23;;;13.80;99.90;;;;;;5071552;28;20098;-66
2023/09/27 05:01:34;;;;;;;26.47;20.83;;;13.70;99.90;;;;;;5072859;28;20052;-65
2023/09/27 05:03:59;;;;;;;21.30;19.10;;;13.70;99.90;;;;;;5072815;28;20392;-65
2023/09/27 05:06:25;;;;;;;23.60;21.10;;;13.80;99.90;;;;;;5072779;28;20056;-65
2023/09/27 05:08:51;;;;;;;21.73;19.60;;;13.80;99.90;;;;;;5072689;28;20044;-65
2023/09/27 05:11:20;;;;;;;24.63;22.13;;;13.80;99.90;;;;;;5072672;28;20044;-66
2023/09/27 05:13:46;;;;;;;21.60;18.70;;;13.70;99.90;;;;;;5072575;28;20059;-65
2023/09/27 05:16:12;;;;;;;20.90;18.77;;;13.70;99.90;;;;;;5071732;28;20488;-65
2023/09/27 05:18:38;;;;;;;26.90;22.83;;;13.70;99.90;;;;;;5072668;28;20052;-65
2023/09/27 05:21:05;;;;;;;24.70;22.40;;;13.70;99.90;;;;;;5075913;28;20040;-65
2023/09/27 05:23:31;;;;;;;24.90;22.47;;;13.70;99.90;;;;;;5076784;28;20048;-65
2023/09/27 05:25:57;;;;;;;29.53;24.63;;;13.70;99.90;;;;;;5076142;28;20048;-65
2023/09/27 05:28:23;;;;;;;26.23;23.53;;;13.70;99.90;;;;;;5076016;28;20052;-65
2023/09/27 05:30:49;;;;;;;24.40;22.00;;;13.70;99.90;;;;;;5076834;28;20044;-65
2023/09/27 05:33:16;;;;;;;26.27;23.67;;;13.70;99.90;;;;;;5075631;28;20047;-65
2023/09/27 05:35:41;;;;;;;24.07;21.67;;;13.80;99.90;;;;;;5076350;28;20044;-64
2023/09/27 05:38:07;;;;;;;28.27;25.47;;;13.80;99.90;;;;;;5075943;28;20066;-64
2023/09/27 05:40:33;;;;;;;26.07;23.03;;;13.80;99.90;;;;;;5075202;28;20049;-65
2023/09/27 05:43:02;;;;;;;26.13;23.53;;;13.80;99.90;;;;;;5075912;28;20051;-64
2023/09/27 05:45:28;;;;;;;26.23;23.53;;;13.80;99.90;;;;;;5075480;28;20084;-64
2023/09/27 05:47:54;;;;;;;25.93;23.33;;;13.80;99.90;;;;;;5075772;28;20091;-64
2023/09/27 05:50:20;;;;;;;24.27;21.80;;;13.80;99.90;;;;;;5075424;28;20051;-64
2023/09/27 05:52:46;;;;;;;25.43;22.93;;;13.80;99.90;;;;;;5075568;28;20032;-64
2023/09/27 05:55:13;;;;;;;25.53;23.07;;;13.90;99.90;;;;;;5075567;28;20052;-64
2023/09/27 05:57:38;;;;;;;25.37;22.80;;;13.90;99.90;;;;;;5075598;28;20044;-66
2023/09/27 06:00:26;;;;;;;24.33;21.87;;;13.90;99.90;;;;;;5075530;28;20052;-63
2023/09/27 06:02:52;;;;;;;26.30;22.40;;;13.90;99.90;;;;;;5076164;28;20076;-64
2023/09/27 06:05:18;;;;;;;24.10;21.60;;;13.90;99.90;;;;;;5075105;28;20527;-64
2023/09/27 06:07:44;;;;;;;24.87;22.33;;;14.00;99.90;;;;;;5075056;28;20040;-64
2023/09/27 06:10:10;;;;;;;26.03;23.43;;;14.00;99.90;;;;;;5075390;28;20049;-64
2023/09/27 06:12:35;;;;;;;25.17;22.60;;;14.00;99.90;;;;;;5075252;28;20040;-64
2023/09/27 06:15:01;;;;;;;25.27;22.77;;;14.00;99.90;;;;;;5075713;28;20057;-64
2023/09/27 06:17:27;;;;;;;25.33;22.60;;;14.10;99.90;;;;;;5075219;28;20052;-64
2023/09/27 06:19:52;;;;;;;26.93;23.80;;;14.10;99.90;;;;;;5075251;28;20049;-64
2023/09/27 06:22:22;;;;;;;25.40;22.80;;;14.10;99.90;;;;;;5075180;28;20468;-64
2023/09/27 06:24:48;;;;;;;24.60;22.03;;;14.10;99.90;;;;;;5075110;28;20118;-64
2023/09/27 06:27:16;;;;;;;26.43;23.87;;;14.10;99.90;;;;;;5074726;28;20508;-64
2023/09/27 06:29:42;;;;;;;26.10;23.43;;;14.10;99.90;;;;;;5075553;28;20055;-64
2023/09/27 06:32:07;;;;;;;24.70;22.13;;;14.10;99.90;;;;;;5074740;28;20037;-64
2023/09/27 06:34:35;;;;;;;26.47;23.50;;;14.20;99.90;;;;;;5074971;28;20060;-64
2023/09/27 06:37:01;;;;;;;25.17;22.77;;;14.20;99.90;;;;;;5074917;28;20092;-64
2023/09/27 06:39:26;;;;;;;28.97;26.07;;;14.30;99.90;;;;;;5074785;28;20102;-64
2023/09/27 06:41:52;;;;;;;27.40;24.63;;;14.40;99.90;;;;;;5074731;28;20064;-64
2023/09/27 06:44:21;;;;;;;26.07;23.30;;;14.50;99.90;;;;;;5074647;28;20500;-64
2023/09/27 06:46:49;;;;;;;28.00;25.27;;;14.50;99.90;;;;;;5074623;28;20461;-64
2023/09/27 06:49:16;;;;;;;28.87;25.77;;;14.70;99.90;;;;;;5074669;28;20063;-64
2023/09/27 06:51:43;;;;;;;29.33;26.17;;;14.80;99.90;;;;;;5074440;28;20044;-64
2023/09/27 06:54:09;;;;;;;30.70;25.37;;;14.90;99.90;;;;;;5074502;28;20045;-64
2023/09/27 06:56:35;;;;;;;31.33;24.90;;;15.10;99.90;;;;;;5074405;28;20050;-64
2023/09/27 06:59:00;;;;;;;29.87;26.83;;;15.10;99.90;;;;;;5075216;28;20101;-64
2023/09/27 07:01:26;;;;;;;28.63;25.27;;;15.30;99.90;;;;;;5074373;28;20496;-64
2023/09/27 07:03:51;;;;;;;27.53;24.73;;;15.40;99.90;;;;;;5075159;28;20048;-64
2023/09/27 07:06:18;;;;;;;25.20;22.63;;;15.70;99.90;;;;;;5074879;28;20473;-64
2023/09/27 07:08:47;;;;;;;25.83;23.20;;;16.00;99.90;;;;;;5074218;28;20044;-64
2023/09/27 07:11:13;;;;;;;23.23;20.80;;;16.60;99.90;;;;;;5074328;28;20086;-64
2023/09/27 07:13:39;;;;;;;20.90;18.80;;;17.30;99.90;;;;;;5074400;28;20049;-64
2023/09/27 07:16:29;;;;;;;21.03;18.80;;;17.60;99.90;;;;;;5074052;28;20080;-64
2023/09/27 07:19:00;;;;;;;20.70;18.07;;;17.60;99.90;;;;;;5074091;28;20476;-64
2023/09/27 07:21:27;;;;;;;23.27;21.03;;;17.40;99.90;;;;;;5074795;28;20094;-65
2023/09/27 07:23:53;;;;;;;22.20;20.07;;;17.10;99.90;;;;;;5074012;28;20052;-64
2023/09/27 07:26:19;;;;;;;23.23;20.93;;;16.90;99.90;;;;;;5073920;28;20044;-64
2023/09/27 07:28:45;;;;;;;22.77;20.47;;;16.80;99.90;;;;;;5073899;28;20197;-64
2023/09/27 07:31:15;;;;;;;23.33;21.00;;;16.70;99.90;;;;;;5073846;28;20056;-64
2023/09/27 07:33:41;;;;;;;22.93;20.70;;;16.70;99.90;;;;;;5074067;28;20051;-64
2023/09/27 07:36:09;;;;;;;24.70;21.87;;;16.70;99.90;;;;;;5074348;28;20054;-64
2023/09/27 07:38:37;;;;;;;23.27;20.87;;;16.60;99.90;;;;;;5073737;28;20053;-64
2023/09/27 07:41:03;;;;;;;25.13;22.63;;;16.80;99.90;;;;;;5073772;28;20044;-64
2023/09/27 07:43:29;;;;;;;26.37;23.80;;;16.80;99.90;;;;;;5073444;28;20143;-64
2023/09/27 07:45:55;;;;;;;24.00;21.60;;;16.80;99.90;;;;;;5074248;28;20127;-64
2023/09/27 07:48:21;;;;;;;25.57;22.97;;;16.90;99.90;;;;;;5074188;28;20391;-64
2023/09/27 07:50:47;;;;;;;26.07;22.37;;;17.00;99.90;;;;;;5073673;28;20127;-64
2023/09/27 07:53:13;;;;;;;25.33;22.83;;;17.00;99.90;;;;;;5073585;28;20070;-64
2023/09/27 07:55:46;;;;;;;26.07;23.50;;;17.10;99.90;;;;;;5073397;28;20384;-64
2023/09/27 07:58:13;;;;;;;26.93;22.77;;;17.20;99.90;;;;;;5073804;28;20044;-64
2023/09/27 08:00:43;;;;;;;25.27;22.43;;;17.30;99.90;;;;;;5073498;28;20154;-64
2023/09/27 08:03:10;;;;;;;24.40;22.00;;;17.50;99.90;;;;;;5074302;28;20040;-64
2023/09/27 08:05:43;;;;;;;24.63;22.13;;;17.60;99.90;;;;;;5073453;28;20099;-65
2023/09/27 08:08:16;;;;;;;25.70;22.97;;;17.80;99.90;;;;;;5072855;28;20067;-64
2023/09/27 08:10:47;;;;;;;27.10;22.20;;;17.90;99.90;;;;;;5073381;28;20044;-64
2023/09/27 08:13:14;;;;;;;25.03;22.27;;;17.90;99.90;;;;;;5073685;28;20052;-64
2023/09/27 08:15:41;;;;;;;23.53;21.03;;;18.00;99.90;;;;;;5073043;28;20500;-64
2023/09/27 08:18:07;;;;;;;23.13;20.63;;;18.10;99.90;;;;;;5073114;28;20055;-64
2023/09/27 08:20:34;;;;;;;24.90;21.27;;;18.10;99.90;;;;;;5073539;28;20044;-64
2023/09/27 08:23:01;;;;;;;25.03;22.40;;;18.10;99.90;;;;;;5074099;28;20091;-64
2023/09/27 08:25:27;;;;;;;23.47;21.07;;;18.20;99.90;;;;;;5073257;28;20044;-64
2023/09/27 08:27:53;;;;;;;22.07;19.77;;;18.30;99.90;;;;;;5073246;28;20056;-64
2023/09/27 08:30:20;;;;;;;25.27;22.27;;;18.40;99.90;;;;;;5073261;28;20055;-64
2023/09/27 08:32:46;;;;;;;25.23;21.30;;;18.50;99.90;;;;;;5073093;28;20036;-64
2023/09/27 08:35:11;;;;;;;24.20;21.00;;;18.50;99.90;;;;;;5072271;28;20052;-64
2023/09/27 08:37:37;;;;;;;23.43;20.70;;;18.60;99.90;;;;;;5072216;28;20053;-64
2023/09/27 08:40:05;;;;;;;22.10;19.90;;;18.70;99.90;;;;;;5073126;28;20049;-64
2023/09/27 08:42:32;;;;;;;25.80;19.43;;;18.80;99.90;;;;;;5073674;28;20045;-64
2023/09/27 08:44:59;;;;;;;23.30;18.73;;;18.80;99.90;;;;;;5073054;28;20040;-64
2023/09/27 08:47:25;;;;;;;22.63;18.43;;;18.80;99.90;;;;;;5073015;28;20084;-64
2023/09/27 08:49:51;;;;;;;21.10;17.90;;;18.80;99.90;;;;;;5072042;28;20080;-64
2023/09/27 08:52:18;;;;;;;24.77;18.10;;;18.90;99.90;;;;;;5072970;28;20036;-64
2023/09/27 08:54:44;;;;;;;22.70;18.73;;;18.90;99.90;;;;;;5075942;28;20049;-64
2023/09/27 08:57:11;;;;;;;21.63;17.77;;;19.00;99.90;;;;;;5077058;28;20439;-64
2023/09/27 08:59:38;;;;;;;24.80;18.87;;;19.00;99.90;;;;;;5076668;28;20400;-65
2023/09/27 09:02:05;;;;;;;22.07;17.90;;;19.00;99.90;;;;;;5076690;28;20080;-64
2023/09/27 09:04:32;;;;;;;22.53;17.77;;;19.10;99.90;;;;;;5076616;28;20045;-64
2023/09/27 09:06:58;;;;;;;22.93;18.67;;;19.20;99.90;;;;;;5076861;28;20404;-64
2023/09/27 09:09:26;;;;;;;21.43;17.33;;;19.20;99.90;;;;;;5076610;28;20052;-64
2023/09/27 09:11:57;;;;;;;24.87;16.77;;;19.30;99.90;;;;;;5075817;28;20117;-64
2023/09/27 09:14:44;;;;;;;20.37;14.27;;;19.40;99.90;;;;;;5058775;28;20569;-64
2023/09/27 09:17:11;;;;;;;19.50;14.90;;;19.40;99.90;;;;;;5076514;28;20071;-64
2023/09/27 09:19:41;;;;;;;24.10;15.27;;;19.50;99.90;;;;;;5076367;28;20044;-64
2023/09/27 09:22:09;;;;;;;16.37;14.20;;;19.60;99.90;;;;;;5076658;28;20045;-64
2023/09/27 09:24:36;;;;;;;20.77;14.17;;;19.60;99.90;;;;;;5076301;28;20408;-64
2023/09/27 09:27:12;;;;;;;19.27;15.37;;;19.60;99.90;;;;;;5076152;28;20049;-64
2023/09/27 09:29:50;;;;;;;19.77;13.67;;;19.70;99.90;;;;;;5075748;28;20048;-64
2023/09/27 09:32:20;;;;;;;17.83;13.40;;;19.70;99.90;;;;;;5076047;28;20133;-64
2023/09/27 09:34:51;;;;;;;20.87;14.20;;;19.70;99.90;;;;;;5075316;28;20125;-64
2023/09/27 09:37:23;;;;;;;17.57;14.70;;;19.80;99.90;;;;;;5074541;28;20549;-64
2023/09/27 09:39:53;;;;;;;17.53;13.43;;;19.80;99.90;;;;;;5075639;28;20048;-64
2023/09/27 09:42:32;;;;;;;21.13;14.80;;;19.80;99.90;;;;;;5075901;28;20044;-64
2023/09/27 09:45:05;;;;;;;17.33;12.60;;;19.80;99.90;;;;;;5075818;28;20389;-64
2023/09/27 09:47:32;;;;;;;15.20;11.97;;;19.80;99.90;;;;;;5075595;28;20052;-64
2023/09/27 09:49:58;;;;;;;20.03;13.23;;;19.70;99.90;;;;;;5075691;28;20094;-64
2023/09/27 09:52:30;;;;;;;18.73;12.80;;;19.70;99.90;;;;;;5075903;28;20037;-64
2023/09/27 09:54:57;;;;;;;16.00;12.77;;;19.70;99.90;;;;;;5075720;28;20118;-64
2023/09/27 09:57:31;;;;;;;17.07;12.20;;;19.70;99.90;;;;;;5074627;28;20048;-64
2023/09/27 10:00:16;;;;;;;18.38;12.25;;;19.70;99.90;;;;;;5075910;28;20132;-64
2023/09/27 10:02:49;;;;;;;;;;;19.70;99.90;;;;;;5076547;28;20052;-65
2023/09/27 10:05:17;;;;;;;16.70;11.60;;;19.80;99.90;;;;;;5074537;28;19931;-64
2023/09/27 10:07:44;;;;;;;17.33;12.97;;;19.80;99.90;;;;;;5076102;28;20388;-65
2023/09/27 10:10:13;;;;;;;20.73;12.60;;;19.90;99.90;;;;;;5075416;28;20132;-64
2023/09/27 10:12:44;;;;;;;17.93;13.63;;;19.80;99.90;;;;;;5075281;28;20333;-64
2023/09/27 10:15:11;;;;;;;19.20;13.23;;;19.70;99.90;;;;;;5075366;28;20135;-64
2023/09/27 10:17:37;;;;;;;19.57;13.20;;;19.60;99.90;;;;;;5074285;28;20059;-64
2023/09/27 10:20:14;;;;;;;21.73;13.77;;;19.50;99.90;;;;;;5075180;28;20489;-64
2023/09/27 10:22:42;;;;;;;20.27;14.00;;;19.50;99.90;;;;;;5058127;28;20041;-64
2023/09/27 10:25:23;;;;;;;19.37;14.60;;;19.40;99.90;;;;;;5075037;28;20041;-64
2023/09/27 10:28:12;;;;;;;17.87;13.77;;;19.40;99.90;;;;;;5074985;28;20391;-64
2023/09/27 10:30:40;;;;;;;17.83;13.97;;;19.30;99.90;;;;;;5074959;28;20095;-64
2023/09/27 10:33:15;;;;;;;18.23;14.57;;;19.30;99.90;;;;;;5074848;28;20354;-64
2023/09/27 10:35:46;;;;;;;16.27;13.40;;;19.30;99.90;;;;;;5074860;28;20050;-64
2023/09/27 10:38:12;;;;;;;18.50;13.70;;;19.40;99.90;;;;;;5074870;28;20052;-64
2023/09/27 10:40:46;;;;;;;20.10;12.53;;;19.40;99.90;;;;;;5074800;28;20052;-64
2023/09/27 10:43:30;;;;;;;19.97;12.03;;;19.40;99.90;;;;;;5074456;28;20045;-64
2023/09/27 10:45:57;;;;;;;20.52;11.82;;;19.40;99.90;;;;;;5074665;28;20396;-64
2023/09/27 10:48:23;;;;;;;16.87;11.30;;;19.40;99.90;;;;;;5074621;28;20060;-64
2023/09/27 10:50:52;;;;;;;14.80;10.50;;;19.40;99.90;;;;;;5075065;28;20045;-64
2023/09/27 10:53:18;;;;;;;16.83;11.40;;;19.50;99.90;;;;;;5074033;28;20044;-64
2023/09/27 10:55:44;;;;;;;21.63;11.57;;;19.50;99.90;;;;;;5074477;28;20059;-64
2023/09/27 10:58:17;;;;;;;16.77;11.67;;;19.50;99.90;;;;;;5073465;28;20055;-64
2023/09/27 11:00:56;;;;;;;15.67;10.50;;;19.60;99.90;;;;;;5074420;28;20051;-64
2023/09/27 11:03:29;;;;;;;18.63;9.83;;;19.60;99.90;;;;;;5074356;28;20376;-64
2023/09/27 11:05:55;;;;;;;16.07;9.67;;;19.70;99.90;;;;;;5074626;28;20041;-64
2023/09/27 11:08:25;;;;;;;15.23;9.30;;;19.70;99.90;;;;;;5074285;28;20044;-64
2023/09/27 11:10:56;;;;;;;13.50;8.70;;;19.70;99.90;;;;;;5072954;28;20048;-65
2023/09/27 11:13:22;;;;;;;14.57;8.87;;;19.80;99.90;;;;;;5073943;28;20045;-64
2023/09/27 11:15:48;;;;;;;13.37;8.63;;;19.80;99.90;;;;;;5074662;28;20064;-64
2023/09/27 11:18:14;;;;;;;13.53;8.13;;;19.90;99.90;;;;;;5072820;28;20045;-64
2023/09/27 11:20:39;;;;;;;15.17;8.80;;;19.90;99.90;;;;;;5072895;28;20044;-63
2023/09/27 11:23:05;;;;;;;11.30;7.40;;;20.00;99.90;;;;;;5074605;28;20044;-63
2023/09/27 11:25:33;;;;;;;13.47;7.47;;;20.10;99.90;;;;;;5074029;28;20400;-64
2023/09/27 11:27:59;;;;;;;14.70;7.67;;;20.20;99.90;;;;;;5073996;28;20107;-64
2023/09/27 11:30:26;;;;;;;9.77;6.23;;;20.20;99.90;;;;;;5074220;28;20044;-64
2023/09/27 11:32:52;;;;;;;14.03;6.73;;;20.20;99.90;;;;;;5074221;28;20044;-64
2023/09/27 11:35:20;;;;;;;11.10;6.03;;;20.20;99.90;;;;;;5074382;28;20101;-64
2023/09/27 11:37:47;;;;;;;11.67;5.97;;;20.20;99.90;;;;;;5073460;28;20503;-63
2023/09/27 11:40:13;;;;;;;11.37;5.77;;;20.10;99.90;;;;;;5073759;28;20060;-63
2023/09/27 11:42:39;;;;;;;11.83;6.27;;;20.10;99.90;;;;;;5073735;28;20142;-64
2023/09/27 11:45:08;;;;;;;12.67;5.70;;;20.10;99.90;;;;;;5073601;28;20052;-64
2023/09/27 11:47:50;;;;;;;13.03;6.17;;;20.10;99.90;;;;;;5073603;28;20073;-64
2023/09/27 11:50:17;;;;;;;12.40;5.17;;;20.10;99.90;;;;;;5073612;28;20109;-64
2023/09/27 11:52:44;;;;;;;10.63;5.30;;;20.20;99.90;;;;;;5073527;28;20049;-64
2023/09/27 11:55:10;;;;;;;10.00;4.80;;;20.30;99.90;;;;;;5073575;28;20051;-64
2023/09/27 11:57:36;;;;;;;10.67;5.10;;;20.50;99.90;;;;;;5073495;28;20127;-64
2023/09/27 12:00:05;;;;;;;10.97;5.13;;;20.70;99.90;;;;;;5073466;28;20048;-64
2023/09/27 12:02:33;;;;;;;11.80;5.20;;;20.90;99.90;;;;;;5073113;28;20056;-64
2023/09/27 12:05:00;;;;;;;12.07;5.30;;;20.90;99.90;;;;;;5055675;28;20054;-64
2023/09/27 12:07:27;;;;;;;8.40;4.87;;;21.00;99.90;;;;;;5073355;28;20049;-64
2023/09/27 12:09:54;;;;;;;8.27;4.60;;;21.00;99.90;;;;;;5073341;28;20063;-64
2023/09/27 12:12:20;;;;;;;8.73;5.33;;;21.00;99.90;;;;;;5073258;28;20053;-64
2023/09/27 12:14:46;;;;;;;9.80;4.77;;;21.00;99.90;;;;;;5073227;28;20062;-64
2023/09/27 12:17:12;;;;;;;9.73;4.70;;;21.00;99.90;;;;;;5073348;28;20052;-64
2023/09/27 12:19:38;;;;;;;10.47;5.03;;;21.00;99.90;;;;;;5074137;28;20049;-64
2023/09/27 12:22:04;;;;;;;10.00;4.40;;;21.00;99.90;;;;;;5073247;28;20055;-64
2023/09/27 12:24:30;;;;;;;8.80;4.30;;;20.90;99.90;;;;;;5072955;28;20049;-64
2023/09/27 12:26:56;;;;;;;14.70;4.70;;;20.90;99.90;;;;;;5073219;28;20098;-63
2023/09/27 12:29:22;;;;;;;12.00;3.93;;;20.80;99.90;;;;;;5075995;28;20049;-64